Time;durP1;ratioP1;P1;durP2;ratioP2;P2;SDS_P1;SDS_P2;PMS_P1;PMS_P2;Temp;Humidity;BMP_temperature;BMP_pressure;BME280_temperature;BME280_humidity;BME280_pressure;Samples;Min_cycle;Max_cycle;Signal;HPM_P1;HPM_P2
2022/10/29 00:00:29;;;;;;;23.88;9.95;;;;;;;;;;5046886;28;20426;-82
2022/10/29 00:02:55;;;;;;;24.57;10.70;;;;;;;;;;5047811;28;20429;-82
2022/10/29 00:05:24;;;;;;;21.38;10.10;;;;;;;;;;5045188;28;20421;-82
2022/10/29 00:07:51;;;;;;;19.58;9.50;;;;;;;;;;5048831;28;20778;-81
2022/10/29 00:10:17;;;;;;;21.55;9.77;;;;;;;;;;5048768;28;20936;-80
2022/10/29 00:12:43;;;;;;;22.97;11.10;;;;;;;;;;5046897;28;20896;-80
2022/10/29 00:15:10;;;;;;;22.60;10.32;;;;;;;;;;5048051;28;20425;-81
2022/10/29 00:17:37;;;;;;;22.33;10.85;;;;;;;;;;5048564;28;20421;-83
2022/10/29 00:20:03;;;;;;;25.85;10.98;;;;;;;;;;5047020;28;20417;-82
2022/10/29 00:22:31;;;;;;;21.55;10.63;;;;;;;;;;5048082;28;20426;-83
2022/10/29 00:24:58;;;;;;;23.60;10.13;;;;;;;;;;5043542;28;20789;-81
2022/10/29 00:27:25;;;;;;;24.90;10.80;;;;;;;;;;5047121;28;20498;-82
2022/10/29 00:29:51;;;;;;;28.00;11.70;;;;;;;;;;5044934;28;20426;-81
2022/10/29 00:32:17;;;;;;;22.90;9.70;;;;;;;;;;5048762;28;20432;-80
2022/10/29 00:34:44;;;;;;;21.77;10.25;;;;;;;;;;5045785;28;20417;-82
2022/10/29 00:37:10;;;;;;;23.02;11.32;;;;;;;;;;5046424;28;20429;-81
2022/10/29 00:39:38;;;;;;;23.10;10.20;;;;;;;;;;5047502;28;20409;-81
2022/10/29 00:42:05;;;;;;;24.65;11.50;;;;;;;;;;5047447;28;20914;-83
2022/10/29 00:44:34;;;;;;;21.75;10.48;;;;;;;;;;5045357;28;20756;-81
2022/10/29 00:47:10;;;;;;;26.90;12.45;;;;;;;;;;5046424;28;20906;-81
2022/10/29 00:49:37;;;;;;;27.35;11.82;;;;;;;;;;5045627;28;20757;-82
2022/10/29 00:52:04;;;;;;;22.75;10.60;;;;;;;;;;5049742;28;20433;-81
2022/10/29 00:54:31;;;;;;;25.20;10.70;;;;;;;;;;5046344;28;20429;-82
2022/10/29 00:57:03;;;;;;;21.70;11.80;;;;;;;;;;5045558;28;20440;-82
2022/10/29 00:59:29;;;;;;;24.02;11.13;;;;;;;;;;5044091;28;20437;-81
2022/10/29 01:01:56;;;;;;;21.38;11.20;;;;;;;;;;5046450;28;20439;-80
2022/10/29 01:04:23;;;;;;;29.27;10.90;;;;;;;;;;5043862;28;20520;-80
2022/10/29 01:06:49;;;;;;;26.33;11.07;;;;;;;;;;5044492;28;20422;-81
2022/10/29 01:09:16;;;;;;;21.40;11.60;;;;;;;;;;5040739;28;20443;-82
2022/10/29 01:11:46;;;;;;;26.65;12.00;;;;;;;;;;5042076;28;20435;-82
2022/10/29 01:14:20;;;;;;;22.05;11.60;;;;;;;;;;5040002;28;20910;-82
2022/10/29 01:16:48;;;;;;;26.67;11.48;;;;;;;;;;5044067;28;20420;-82
2022/10/29 01:19:20;;;;;;;24.63;11.27;;;;;;;;;;5044947;28;20467;-83
2022/10/29 01:21:49;;;;;;;28.65;11.98;;;;;;;;;;5045593;28;20439;-83
2022/10/29 01:24:29;;;;;;;23.03;10.10;;;;;;;;;;5044859;28;20440;-83
2022/10/29 01:27:14;;;;;;;26.52;10.82;;;;;;;;;;5043389;28;21344;-80
2022/10/29 01:29:55;;;;;;;25.02;10.93;;;;;;;;;;5041407;28;20409;-83
2022/10/29 01:32:26;;;;;;;30.05;10.98;;;;;;;;;;5045561;28;20425;-82
2022/10/29 01:34:58;;;;;;;25.55;11.52;;;;;;;;;;5044538;28;20424;-82
2022/10/29 01:37:28;;;;;;;24.85;11.75;;;;;;;;;;5044145;28;20504;-83
2022/10/29 01:39:57;;;;;;;29.42;11.25;;;;;;;;;;5046301;28;20425;-82
2022/10/29 01:42:26;;;;;;;25.52;11.52;;;;;;;;;;5043052;28;20439;-83
2022/10/29 01:44:56;;;;;;;26.73;10.65;;;;;;;;;;5044425;28;20492;-82
2022/10/29 01:47:26;;;;;;;20.60;10.60;;;;;;;;;;5040400;28;20442;-82
2022/10/29 01:49:54;;;;;;;26.70;12.18;;;;;;;;;;5045168;28;20423;-83
2022/10/29 01:52:22;;;;;;;24.75;11.18;;;;;;;;;;5047508;28;20405;-83
2022/10/29 01:54:48;;;;;;;22.08;10.05;;;;;;;;;;5042860;28;20498;-83
2022/10/29 01:57:29;;;;;;;23.23;10.57;;;;;;;;;;5044965;28;20417;-83
2022/10/29 01:59:56;;;;;;;26.40;11.23;;;;;;;;;;5046734;28;20409;-81
2022/10/29 02:02:26;;;;;;;23.77;11.15;;;;;;;;;;5044468;28;20441;-81
2022/10/29 02:04:59;;;;;;;22.65;9.65;;;;;;;;;;5045062;28;20432;-82
2022/10/29 02:07:31;;;;;;;21.80;10.20;;;;;;;;;;5046698;28;20430;-81
2022/10/29 02:10:03;;;;;;;24.25;10.25;;;;;;;;;;5043159;28;20419;-81
2022/10/29 02:12:30;;;;;;;20.58;11.35;;;;;;;;;;5045328;28;20922;-81
2022/10/29 02:14:58;;;;;;;22.80;10.23;;;;;;;;;;5044543;28;20434;-81
2022/10/29 02:17:26;;;;;;;25.25;10.55;;;;;;;;;;5043687;28;20435;-81
2022/10/29 02:19:52;;;;;;;25.30;11.80;;;;;;;;;;5042069;28;20411;-81
2022/10/29 02:22:19;;;;;;;27.92;11.13;;;;;;;;;;5043359;28;20427;-81
2022/10/29 02:24:45;;;;;;;18.42;10.60;;;;;;;;;;5043611;28;20421;-82
2022/10/29 02:27:12;;;;;;;21.52;10.90;;;;;;;;;;5043234;28;20441;-81
2022/10/29 02:29:38;;;;;;;24.27;12.50;;;;;;;;;;5045015;28;20429;-82
2022/10/29 02:32:05;;;;;;;31.23;12.18;;;;;;;;;;5043009;28;20787;-81
2022/10/29 02:34:33;;;;;;;27.90;11.95;;;;;;;;;;5044102;28;20406;-81
2022/10/29 02:36:59;;;;;;;25.88;12.30;;;;;;;;;;5044959;28;20427;-82
2022/10/29 02:39:26;;;;;;;24.02;11.93;;;;;;;;;;5042160;28;20433;-82
2022/10/29 02:41:53;;;;;;;33.22;13.55;;;;;;;;;;5045025;28;20431;-82
2022/10/29 02:44:20;;;;;;;32.97;14.15;;;;;;;;;;5043721;28;20561;-82
2022/10/29 02:46:46;;;;;;;29.13;12.15;;;;;;;;;;5044251;28;20431;-82
2022/10/29 02:49:12;;;;;;;29.67;12.15;;;;;;;;;;5044287;28;20428;-82
2022/10/29 02:51:40;;;;;;;22.42;12.10;;;;;;;;;;5040404;28;20427;-82
2022/10/29 02:54:07;;;;;;;30.45;13.20;;;;;;;;;;5046538;28;20425;-82
2022/10/29 02:56:33;;;;;;;23.60;11.68;;;;;;;;;;5044584;28;20947;-81
2022/10/29 02:59:00;;;;;;;20.60;11.95;;;;;;;;;;5044357;28;20439;-82
2022/10/29 03:01:26;;;;;;;25.40;12.23;;;;;;;;;;5045320;28;20492;-82
2022/10/29 03:03:52;;;;;;;28.70;12.60;;;;;;;;;;5044098;28;20430;-81
2022/10/29 03:06:19;;;;;;;28.35;12.95;;;;;;;;;;5043026;28;20461;-81
2022/10/29 03:08:47;;;;;;;21.10;11.32;;;;;;;;;;5042489;28;20449;-81
2022/10/29 03:11:14;;;;;;;23.95;12.10;;;;;;;;;;5045133;28;20460;-80
2022/10/29 03:13:40;;;;;;;21.85;11.13;;;;;;;;;;5040915;28;20417;-80
2022/10/29 03:16:06;;;;;;;25.17;12.38;;;;;;;;;;5041975;28;20803;-80
2022/10/29 03:18:33;;;;;;;24.20;12.30;;;;;;;;;;5040893;28;20440;-81
2022/10/29 03:20:59;;;;;;;26.70;13.40;;;;;;;;;;5045457;28;20428;-81
2022/10/29 03:23:26;;;;;;;29.67;13.77;;;;;;;;;;5045544;28;20441;-81
2022/10/29 03:25:54;;;;;;;25.38;12.35;;;;;;;;;;5044134;28;20530;-81
2022/10/29 03:28:20;;;;;;;24.30;13.18;;;;;;;;;;5042120;28;20427;-81
2022/10/29 03:30:47;;;;;;;24.83;11.85;;;;;;;;;;5045056;28;20452;-81
2022/10/29 03:33:13;;;;;;;23.63;12.32;;;;;;;;;;5041154;28;20459;-82
2022/10/29 03:35:40;;;;;;;26.75;13.07;;;;;;;;;;5044647;28;20423;-81
2022/10/29 03:38:06;;;;;;;23.85;12.02;;;;;;;;;;5047447;28;20439;-82
2022/10/29 03:40:33;;;;;;;25.80;12.25;;;;;;;;;;5049315;28;20426;-81
2022/10/29 03:43:01;;;;;;;22.42;11.82;;;;;;;;;;5049683;28;20595;-82
2022/10/29 03:45:27;;;;;;;25.45;11.55;;;;;;;;;;5049657;28;20933;-81
2022/10/29 03:47:54;;;;;;;20.40;11.53;;;;;;;;;;5046357;28;20440;-81
2022/10/29 03:50:21;;;;;;;28.13;11.18;;;;;;;;;;5043807;28;20484;-80
2022/10/29 03:52:47;;;;;;;20.48;11.10;;;;;;;;;;5042601;28;20439;-81
2022/10/29 03:55:14;;;;;;;19.38;9.50;;;;;;;;;;5042806;28;20421;-80
2022/10/29 03:57:40;;;;;;;24.63;11.05;;;;;;;;;;5044927;28;20436;-81
2022/10/29 04:00:10;;;;;;;18.55;9.23;;;;;;;;;;5050050;28;20405;-81
2022/10/29 04:02:36;;;;;;;18.23;10.27;;;;;;;;;;5045388;28;20923;-81
2022/10/29 04:05:03;;;;;;;17.85;10.32;;;;;;;;;;5044784;28;20795;-81
2022/10/29 04:07:29;;;;;;;22.33;10.70;;;;;;;;;;5049113;28;20429;-81
2022/10/29 04:09:55;;;;;;;18.08;10.23;;;;;;;;;;5044752;28;20428;-81
2022/10/29 04:12:22;;;;;;;20.45;12.02;;;;;;;;;;5046395;28;20430;-81
2022/10/29 04:14:48;;;;;;;22.23;12.55;;;;;;;;;;5048512;28;20409;-81
2022/10/29 04:17:16;;;;;;;18.00;10.63;;;;;;;;;;5045624;28;20421;-81
2022/10/29 04:19:43;;;;;;;22.48;12.02;;;;;;;;;;5041550;28;20407;-81
2022/10/29 04:22:09;;;;;;;15.55;9.68;;;;;;;;;;5045822;28;20500;-81
2022/10/29 04:24:36;;;;;;;18.10;10.63;;;;;;;;;;5042900;28;21031;-81
2022/10/29 04:27:02;;;;;;;18.92;9.00;;;;;;;;;;5045099;28;20443;-82
2022/10/29 04:29:28;;;;;;;15.05;8.93;;;;;;;;;;5044982;28;20407;-81
2022/10/29 04:31:55;;;;;;;17.45;9.20;;;;;;;;;;5044368;28;20435;-81
2022/10/29 04:34:23;;;;;;;21.80;9.90;;;;;;;;;;5042119;28;20829;-81
2022/10/29 04:36:51;;;;;;;15.60;8.13;;;;;;;;;;5043480;28;20442;-81
2022/10/29 04:39:17;;;;;;;13.93;8.40;;;;;;;;;;5043855;28;20423;-81
2022/10/29 04:41:44;;;;;;;14.48;8.23;;;;;;;;;;5046338;28;20431;-81
2022/10/29 04:44:10;;;;;;;15.68;8.40;;;;;;;;;;5042661;28;20435;-81
2022/10/29 04:46:37;;;;;;;16.75;8.60;;;;;;;;;;5043234;28;20431;-81
2022/10/29 04:49:03;;;;;;;16.13;7.95;;;;;;;;;;5044707;28;20437;-81
2022/10/29 04:51:31;;;;;;;13.32;8.45;;;;;;;;;;5045172;28;20422;-81
2022/10/29 04:53:57;;;;;;;14.97;8.87;;;;;;;;;;5045300;28;20429;-81
2022/10/29 04:56:24;;;;;;;16.73;9.50;;;;;;;;;;5044509;28;20429;-81
2022/10/29 04:58:51;;;;;;;14.10;8.90;;;;;;;;;;5039576;28;20427;-81
2022/10/29 05:01:17;;;;;;;15.43;9.43;;;;;;;;;;5047694;28;20421;-81
2022/10/29 05:03:44;;;;;;;13.60;7.97;;;;;;;;;;5043041;28;20433;-81
2022/10/29 05:06:10;;;;;;;18.08;9.70;;;;;;;;;;5040920;28;20947;-81
2022/10/29 05:08:38;;;;;;;18.13;9.82;;;;;;;;;;5043787;28;20504;-82
2022/10/29 05:11:05;;;;;;;14.95;9.40;;;;;;;;;;5046676;28;20809;-82
2022/10/29 05:13:31;;;;;;;14.50;8.60;;;;;;;;;;5044573;28;20432;-81
2022/10/29 05:15:58;;;;;;;18.08;9.00;;;;;;;;;;5045687;28;20425;-81
2022/10/29 05:18:24;;;;;;;17.30;8.57;;;;;;;;;;5045314;28;20438;-81
2022/10/29 05:20:52;;;;;;;18.23;9.40;;;;;;;;;;5044884;28;20425;-81
2022/10/29 05:23:19;;;;;;;16.25;8.52;;;;;;;;;;5045640;28;20431;-81
2022/10/29 05:25:47;;;;;;;13.23;8.50;;;;;;;;;;5047045;28;20798;-81
2022/10/29 05:28:17;;;;;;;15.98;8.48;;;;;;;;;;5042723;28;20429;-81
2022/10/29 05:30:44;;;;;;;19.65;9.00;;;;;;;;;;5045513;28;20419;-81
2022/10/29 05:33:11;;;;;;;22.60;9.00;;;;;;;;;;5043991;28;20425;-81
2022/10/29 05:35:38;;;;;;;17.85;9.70;;;;;;;;;;5042365;28;20780;-80
2022/10/29 05:38:05;;;;;;;19.55;8.48;;;;;;;;;;5045795;28;20927;-81
2022/10/29 05:40:31;;;;;;;19.88;9.82;;;;;;;;;;5042429;28;20426;-81
2022/10/29 05:42:59;;;;;;;20.70;8.80;;;;;;;;;;5045168;28;20534;-82
2022/10/29 05:45:26;;;;;;;19.00;9.65;;;;;;;;;;5043905;28;20435;-81
2022/10/29 05:47:55;;;;;;;15.80;9.30;;;;;;;;;;5044944;28;20439;-80
2022/10/29 05:50:21;;;;;;;16.05;9.43;;;;;;;;;;5043002;28;20785;-81
2022/10/29 05:52:54;;;;;;;15.88;9.50;;;;;;;;;;5046364;28;20432;-80
2022/10/29 05:55:21;;;;;;;14.77;8.50;;;;;;;;;;5040536;28;20438;-80
2022/10/29 05:57:47;;;;;;;11.65;8.60;;;;;;;;;;5040359;28;20414;-81
2022/10/29 06:00:15;;;;;;;11.82;8.50;;;;;;;;;;5041683;28;20439;-80
2022/10/29 06:02:42;;;;;;;17.00;9.60;;;;;;;;;;5041856;28;20442;-80
2022/10/29 06:05:09;;;;;;;16.13;9.55;;;;;;;;;;5042464;28;20421;-80
2022/10/29 06:07:35;;;;;;;17.70;9.60;;;;;;;;;;5039273;28;20435;-82
2022/10/29 06:10:02;;;;;;;18.23;9.80;;;;;;;;;;5044000;28;20435;-82
2022/10/29 06:12:30;;;;;;;14.93;9.73;;;;;;;;;;5043699;28;20434;-82
2022/10/29 06:14:57;;;;;;;13.20;8.20;;;;;;;;;;5041829;28;20458;-82
2022/10/29 06:17:25;;;;;;;17.30;8.50;;;;;;;;;;5044616;28;20496;-80
2022/10/29 06:19:51;;;;;;;13.88;9.02;;;;;;;;;;5042509;28;20794;-80
2022/10/29 06:22:17;;;;;;;13.57;8.55;;;;;;;;;;5041749;28;20426;-79
2022/10/29 06:24:44;;;;;;;14.93;9.25;;;;;;;;;;5038939;28;20419;-81
2022/10/29 06:27:10;;;;;;;19.38;10.50;;;;;;;;;;5038597;28;20452;-79
2022/10/29 06:29:37;;;;;;;22.73;11.65;;;;;;;;;;5038223;28;20464;-81
2022/10/29 06:32:04;;;;;;;22.52;11.50;;;;;;;;;;5041155;28;20433;-79
2022/10/29 06:34:32;;;;;;;24.98;12.98;;;;;;;;;;5039361;28;20427;-81
2022/10/29 06:36:58;;;;;;;29.02;14.00;;;;;;;;;;5040305;28;21878;-81
2022/10/29 06:39:24;;;;;;;30.23;13.95;;;;;;;;;;5038072;28;20423;-81
2022/10/29 06:41:51;;;;;;;28.98;14.18;;;;;;;;;;5040903;28;20439;-81
2022/10/29 06:44:17;;;;;;;33.60;13.77;;;;;;;;;;5044798;28;20420;-82
2022/10/29 06:46:43;;;;;;;32.70;14.00;;;;;;;;;;5038258;28;20428;-79
2022/10/29 06:49:10;;;;;;;26.05;14.00;;;;;;;;;;5041432;28;20925;-80
2022/10/29 06:51:38;;;;;;;32.05;14.50;;;;;;;;;;5041368;28;20431;-80
2022/10/29 06:54:04;;;;;;;35.47;14.35;;;;;;;;;;5039413;28;20422;-80
2022/10/29 06:56:30;;;;;;;44.85;17.05;;;;;;;;;;5041738;28;20424;-80
2022/10/29 06:58:57;;;;;;;35.50;16.77;;;;;;;;;;5038753;28;20411;-80
2022/10/29 07:01:25;;;;;;;39.53;16.25;;;;;;;;;;5038336;28;20450;-80
2022/10/29 07:03:52;;;;;;;39.17;16.55;;;;;;;;;;5036566;28;20434;-80
2022/10/29 07:06:18;;;;;;;35.10;15.63;;;;;;;;;;5044135;28;20944;-80
2022/10/29 07:08:46;;;;;;;30.92;14.43;;;;;;;;;;5041665;28;20941;-80
2022/10/29 07:11:12;;;;;;;30.20;14.77;;;;;;;;;;5040381;28;20920;-80
2022/10/29 07:13:39;;;;;;;40.47;15.60;;;;;;;;;;5044880;28;20428;-80
2022/10/29 07:16:06;;;;;;;27.65;13.68;;;;;;;;;;5043555;28;20437;-80
2022/10/29 07:18:32;;;;;;;29.77;14.70;;;;;;;;;;5043416;28;20782;-80
2022/10/29 07:20:58;;;;;;;31.65;15.15;;;;;;;;;;5045443;28;20427;-80
2022/10/29 07:23:25;;;;;;;27.48;14.73;;;;;;;;;;5043369;28;20506;-80
2022/10/29 07:25:53;;;;;;;27.30;14.45;;;;;;;;;;5043450;28;20440;-80
2022/10/29 07:28:21;;;;;;;33.30;14.57;;;;;;;;;;5041505;28;20435;-80
2022/10/29 07:30:48;;;;;;;27.43;15.10;;;;;;;;;;5042020;28;20532;-80
2022/10/29 07:33:15;;;;;;;24.23;14.70;;;;;;;;;;5042243;28;20423;-80
2022/10/29 07:35:42;;;;;;;29.30;15.02;;;;;;;;;;5042684;28;20439;-80
2022/10/29 07:38:09;;;;;;;31.05;16.45;;;;;;;;;;5042163;28;20419;-80
2022/10/29 07:40:36;;;;;;;24.80;16.10;;;;;;;;;;5046158;28;20922;-80
2022/10/29 07:43:03;;;;;;;26.90;16.27;;;;;;;;;;5039374;28;20417;-80
2022/10/29 07:45:30;;;;;;;30.33;16.20;;;;;;;;;;5043644;28;20427;-80
2022/10/29 07:48:00;;;;;;;26.97;15.63;;;;;;;;;;5042023;28;20414;-80
2022/10/29 07:50:27;;;;;;;29.80;16.10;;;;;;;;;;5046192;28;20416;-80
2022/10/29 07:52:53;;;;;;;32.50;17.00;;;;;;;;;;5040447;28;20407;-80
2022/10/29 07:55:20;;;;;;;32.20;17.25;;;;;;;;;;5046215;28;20441;-80
2022/10/29 07:57:46;;;;;;;32.20;18.00;;;;;;;;;;5040482;28;20434;-80
2022/10/29 08:00:16;;;;;;;30.15;18.50;;;;;;;;;;5044379;28;21052;-80
2022/10/29 08:02:43;;;;;;;33.72;19.55;;;;;;;;;;5040822;28;20829;-80
2022/10/29 08:05:09;;;;;;;31.25;18.55;;;;;;;;;;5045021;28;20413;-80
2022/10/29 08:07:35;;;;;;;34.58;19.73;;;;;;;;;;5041684;28;20433;-80
2022/10/29 08:10:02;;;;;;;30.83;18.17;;;;;;;;;;5044068;28;20778;-80
2022/10/29 08:12:28;;;;;;;32.63;19.60;;;;;;;;;;5043673;28;20422;-80
2022/10/29 08:14:55;;;;;;;34.08;20.85;;;;;;;;;;5047015;28;20425;-80
2022/10/29 08:17:22;;;;;;;36.65;22.63;;;;;;;;;;5043350;28;20436;-80
2022/10/29 08:19:49;;;;;;;35.17;20.30;;;;;;;;;;5045294;28;20419;-80
2022/10/29 08:22:15;;;;;;;40.78;22.50;;;;;;;;;;5043473;28;20424;-82
2022/10/29 08:24:41;;;;;;;38.10;20.13;;;;;;;;;;5044254;28;20436;-80
2022/10/29 08:27:08;;;;;;;35.05;20.80;;;;;;;;;;5041208;28;20441;-81
2022/10/29 08:29:34;;;;;;;37.63;21.70;;;;;;;;;;5043065;28;20784;-79
2022/10/29 08:32:01;;;;;;;42.38;24.13;;;;;;;;;;5044929;28;20910;-80
2022/10/29 08:34:28;;;;;;;44.10;24.80;;;;;;;;;;5041446;28;20429;-79
2022/10/29 08:36:55;;;;;;;41.95;25.02;;;;;;;;;;5043802;28;20949;-80
2022/10/29 08:39:21;;;;;;;46.65;26.20;;;;;;;;;;5046193;28;20600;-80
2022/10/29 08:41:54;;;;;;;50.90;26.67;;;;;;;;;;5039840;28;20427;-80
2022/10/29 08:44:31;;;;;;;45.00;26.60;;;;;;;;;;5042749;28;20430;-80
2022/10/29 08:47:00;;;;;;;48.83;27.65;;;;;;;;;;5041154;28;20516;-80
2022/10/29 08:49:31;;;;;;;46.88;27.05;;;;;;;;;;5043297;28;20425;-80
2022/10/29 08:52:02;;;;;;;40.38;25.40;;;;;;;;;;5044822;28;20441;-82
2022/10/29 08:54:30;;;;;;;41.25;24.38;;;;;;;;;;5043972;28;20427;-82
2022/10/29 08:56:58;;;;;;;47.85;27.70;;;;;;;;;;5042362;28;20947;-80
2022/10/29 08:59:25;;;;;;;42.08;27.95;;;;;;;;;;5042215;28;20434;-80
2022/10/29 09:01:52;;;;;;;43.45;27.17;;;;;;;;;;5039963;28;20441;-81
2022/10/29 09:04:21;;;;;;;42.75;27.25;;;;;;;;;;5041259;28;20427;-81
2022/10/29 09:06:51;;;;;;;39.38;27.45;;;;;;;;;;5039488;28;20421;-82
2022/10/29 09:09:25;;;;;;;42.03;27.05;;;;;;;;;;5044709;28;20424;-80
2022/10/29 09:12:00;;;;;;;43.40;28.27;;;;;;;;;;5042398;28;20435;-81
2022/10/29 09:14:34;;;;;;;47.25;27.58;;;;;;;;;;5043732;28;20917;-82
2022/10/29 09:17:03;;;;;;;41.92;28.02;;;;;;;;;;5043965;28;20424;-81
2022/10/29 09:19:50;;;;;;;48.90;28.33;;;;;;;;;;5043673;28;20815;-80
2022/10/29 09:22:20;;;;;;;43.88;28.65;;;;;;;;;;5038013;28;20418;-82
2022/10/29 09:24:55;;;;;;;43.67;28.65;;;;;;;;;;5041323;28;20429;-83
2022/10/29 09:27:24;;;;;;;42.97;28.10;;;;;;;;;;5040350;28;20937;-83
2022/10/29 09:29:55;;;;;;;43.42;27.50;;;;;;;;;;5044124;28;20422;-81
2022/10/29 09:32:24;;;;;;;46.58;29.15;;;;;;;;;;5042459;28;20904;-81
2022/10/29 09:34:52;;;;;;;47.63;29.92;;;;;;;;;;5041519;28;20433;-82
2022/10/29 09:37:21;;;;;;;42.07;27.90;;;;;;;;;;5040504;28;20429;-82
2022/10/29 09:39:49;;;;;;;40.85;27.80;;;;;;;;;;5042589;28;20444;-81
2022/10/29 09:42:17;;;;;;;37.13;26.25;;;;;;;;;;5044307;28;20433;-81
2022/10/29 09:44:49;;;;;;;38.83;24.83;;;;;;;;;;5043232;28;20432;-81
2022/10/29 09:47:19;;;;;;;35.80;23.63;;;;;;;;;;5040518;28;20808;-84
2022/10/29 09:49:50;;;;;;;39.75;24.23;;;;;;;;;;5042782;28;20608;-84
2022/10/29 09:52:18;;;;;;;36.35;24.35;;;;;;;;;;5042516;28;20951;-81
2022/10/29 09:54:45;;;;;;;39.75;23.30;;;;;;;;;;5042118;28;20422;-81
2022/10/29 09:57:16;;;;;;;36.40;23.40;;;;;;;;;;5043823;28;20440;-81
2022/10/29 09:59:46;;;;;;;39.47;22.90;;;;;;;;;;5040939;28;20442;-81
2022/10/29 10:02:22;;;;;;;38.33;22.77;;;;;;;;;;5040149;28;20502;-81
2022/10/29 10:04:50;;;;;;;38.42;21.05;;;;;;;;;;5041905;28;21148;-82
2022/10/29 10:07:18;;;;;;;34.25;21.33;;;;;;;;;;5045611;28;20440;-81
2022/10/29 10:09:54;;;;;;;31.85;20.85;;;;;;;;;;5043321;28;20472;-81
2022/10/29 10:12:24;;;;;;;34.28;22.00;;;;;;;;;;5044327;28;20426;-82
2022/10/29 10:15:02;;;;;;;41.25;22.90;;;;;;;;;;5042543;28;20425;-82
2022/10/29 10:17:28;;;;;;;36.50;20.73;;;;;;;;;;5042154;28;20441;-82
2022/10/29 10:19:55;;;;;;;33.80;22.30;;;;;;;;;;5042419;28;20510;-81
2022/10/29 10:22:23;;;;;;;33.65;22.42;;;;;;;;;;5043145;28;20439;-82
2022/10/29 10:24:49;;;;;;;37.63;21.42;;;;;;;;;;5039987;28;20417;-81
2022/10/29 10:27:30;;;;;;;33.45;20.05;;;;;;;;;;5043726;28;20440;-82
2022/10/29 10:30:08;;;;;;;27.60;18.40;;;;;;;;;;5041345;28;20490;-81
2022/10/29 10:32:34;;;;;;;35.70;19.67;;;;;;;;;;5040041;28;20454;-82
2022/10/29 10:35:00;;;;;;;30.30;19.95;;;;;;;;;;5039084;28;20429;-84
2022/10/29 10:37:30;;;;;;;32.00;19.25;;;;;;;;;;5041111;28;20440;-81
2022/10/29 10:39:59;;;;;;;28.23;18.50;;;;;;;;;;5038900;28;20664;-83
2022/10/29 10:42:28;;;;;;;34.60;20.25;;;;;;;;;;5040971;28;20438;-82
2022/10/29 10:44:56;;;;;;;29.33;19.20;;;;;;;;;;5042369;28;20421;-82
2022/10/29 10:47:24;;;;;;;27.30;19.50;;;;;;;;;;5046878;28;20439;-82
2022/10/29 10:49:50;;;;;;;30.70;20.13;;;;;;;;;;5046448;28;20871;-83
2022/10/29 10:52:18;;;;;;;30.30;19.80;;;;;;;;;;5047554;28;20433;-83
2022/10/29 10:54:45;;;;;;;29.85;18.83;;;;;;;;;;5048207;28;20419;-82
2022/10/29 10:57:22;;;;;;;27.50;19.13;;;;;;;;;;5046817;28;20433;-82
2022/10/29 10:59:54;;;;;;;25.10;18.60;;;;;;;;;;5043005;28;20433;-82
2022/10/29 11:02:23;;;;;;;32.60;19.77;;;;;;;;;;5045523;28;20434;-81
2022/10/29 11:04:52;;;;;;;37.15;20.15;;;;;;;;;;5044462;28;20509;-82
2022/10/29 11:07:19;;;;;;;31.50;19.60;;;;;;;;;;5044317;28;20443;-82
2022/10/29 11:09:46;;;;;;;32.88;20.33;;;;;;;;;;5045368;28;20431;-83
2022/10/29 11:12:15;;;;;;;32.25;20.15;;;;;;;;;;5043349;28;20517;-82
2022/10/29 11:14:46;;;;;;;37.20;20.70;;;;;;;;;;5044043;28;20409;-82
2022/10/29 11:17:20;;;;;;;32.30;19.05;;;;;;;;;;5047290;28;20425;-82
2022/10/29 11:19:48;;;;;;;27.42;18.73;;;;;;;;;;5043609;28;20423;-82
2022/10/29 11:22:20;;;;;;;30.20;20.42;;;;;;;;;;5045324;28;20902;-83
2022/10/29 11:24:49;;;;;;;34.63;20.00;;;;;;;;;;5047170;28;21184;-82
2022/10/29 11:27:21;;;;;;;28.70;19.67;;;;;;;;;;5045761;28;20926;-81
2022/10/29 11:29:52;;;;;;;30.85;18.23;;;;;;;;;;5045630;28;20415;-82
2022/10/29 11:32:23;;;;;;;29.65;19.20;;;;;;;;;;5047847;28;20436;-81
2022/10/29 11:34:53;;;;;;;25.95;18.30;;;;;;;;;;5044465;28;20426;-82
2022/10/29 11:37:23;;;;;;;31.77;18.40;;;;;;;;;;5042893;28;20445;-84
2022/10/29 11:39:52;;;;;;;27.40;18.07;;;;;;;;;;5043592;28;20421;-84
2022/10/29 11:42:18;;;;;;;27.75;17.95;;;;;;;;;;5046190;28;20429;-82
2022/10/29 11:44:44;;;;;;;30.55;18.13;;;;;;;;;;5044169;28;20934;-82
2022/10/29 11:47:18;;;;;;;27.90;17.95;;;;;;;;;;5046442;28;20433;-81
2022/10/29 11:50:00;;;;;;;28.50;18.20;;;;;;;;;;5046622;28;20435;-80
2022/10/29 11:52:33;;;;;;;27.83;17.70;;;;;;;;;;5045268;28;21119;-82
2022/10/29 11:55:05;;;;;;;30.58;19.17;;;;;;;;;;5042508;28;20405;-81
2022/10/29 11:57:33;;;;;;;35.53;19.23;;;;;;;;;;5041702;28;20928;-82
2022/10/29 12:00:04;;;;;;;27.37;17.83;;;;;;;;;;5044497;28;20420;-80
2022/10/29 12:02:37;;;;;;;27.83;17.27;;;;;;;;;;5043550;28;20444;-82
2022/10/29 12:05:07;;;;;;;25.73;17.77;;;;;;;;;;5044283;28;20439;-80
2022/10/29 12:07:40;;;;;;;27.93;17.90;;;;;;;;;;5046498;28;20437;-80
2022/10/29 12:10:15;;;;;;;28.10;18.15;;;;;;;;;;5048478;28;20428;-82
2022/10/29 12:12:46;;;;;;;29.85;18.52;;;;;;;;;;5043691;28;21029;-81
2022/10/29 12:15:18;;;;;;;28.98;17.73;;;;;;;;;;5044334;28;20919;-81
2022/10/29 12:17:48;;;;;;;24.67;15.80;;;;;;;;;;5043265;28;20425;-80
2022/10/29 12:20:17;;;;;;;31.55;15.73;;;;;;;;;;5041273;28;20493;-79
2022/10/29 12:22:47;;;;;;;27.43;16.13;;;;;;;;;;5043764;28;20512;-81
2022/10/29 12:25:21;;;;;;;28.27;16.63;;;;;;;;;;5044415;28;20434;-81
2022/10/29 12:27:52;;;;;;;25.40;16.83;;;;;;;;;;5040896;28;20423;-83
2022/10/29 12:30:19;;;;;;;25.45;16.42;;;;;;;;;;5038310;28;20431;-82
2022/10/29 12:32:52;;;;;;;29.27;17.50;;;;;;;;;;5043848;28;20930;-81
2022/10/29 12:35:22;;;;;;;25.45;16.80;;;;;;;;;;5043643;28;21360;-81
2022/10/29 12:37:58;;;;;;;27.65;18.20;;;;;;;;;;5039140;28;20407;-82
2022/10/29 12:40:27;;;;;;;28.50;17.50;;;;;;;;;;5045267;28;20490;-82
2022/10/29 12:42:56;;;;;;;23.65;15.57;;;;;;;;;;5041601;28;20406;-82
2022/10/29 12:45:28;;;;;;;24.20;15.13;;;;;;;;;;5040646;28;20435;-83
2022/10/29 12:47:56;;;;;;;28.30;16.77;;;;;;;;;;5043954;28;20909;-82
2022/10/29 12:50:26;;;;;;;27.77;15.35;;;;;;;;;;5040711;28;20949;-82
2022/10/29 12:52:58;;;;;;;27.52;15.75;;;;;;;;;;5042615;28;21277;-82
2022/10/29 12:55:24;;;;;;;25.10;14.60;;;;;;;;;;5043920;28;20425;-81
2022/10/29 12:57:51;;;;;;;26.45;15.45;;;;;;;;;;5039555;28;20409;-83
2022/10/29 13:00:35;;;;;;;21.55;15.18;;;;;;;;;;5047460;28;20436;-81
2022/10/29 13:03:01;;;;;;;25.75;15.35;;;;;;;;;;5033870;28;20411;-82
2022/10/29 13:05:39;;;;;;;23.13;14.95;;;;;;;;;;5040903;28;20433;-81
2022/10/29 13:08:26;;;;;;;26.40;15.30;;;;;;;;;;5042347;28;20784;-81
2022/10/29 13:10:54;;;;;;;20.70;14.32;;;;;;;;;;5042740;28;20514;-81
2022/10/29 13:13:23;;;;;;;24.90;16.35;;;;;;;;;;5041029;28;20437;-82
2022/10/29 13:15:58;;;;;;;22.92;14.23;;;;;;;;;;5043057;28;20512;-81
2022/10/29 13:18:27;;;;;;;24.02;13.90;;;;;;;;;;5045795;28;20427;-82
2022/10/29 13:20:54;;;;;;;24.05;14.18;;;;;;;;;;5042873;28;20505;-82
2022/10/29 13:23:41;;;;;;;24.67;14.05;;;;;;;;;;5040837;28;20419;-82
2022/10/29 13:26:09;;;;;;;24.73;14.40;;;;;;;;;;5040254;28;20934;-81
2022/10/29 13:28:49;;;;;;;24.50;14.23;;;;;;;;;;5043318;28;20928;-81
2022/10/29 13:31:34;;;;;;;23.85;13.77;;;;;;;;;;5043185;28;20464;-81
2022/10/29 13:34:00;;;;;;;22.52;13.02;;;;;;;;;;5043868;28;20807;-81
2022/10/29 13:36:36;;;;;;;25.87;14.37;;;;;;;;;;5043285;28;20437;-82
2022/10/29 13:39:03;;;;;;;23.02;13.75;;;;;;;;;;5043403;28;20432;-82
2022/10/29 13:41:39;;;;;;;24.30;13.60;;;;;;;;;;5044146;28;20472;-81
2022/10/29 13:44:09;;;;;;;22.60;13.55;;;;;;;;;;5043338;28;20429;-82
2022/10/29 13:46:46;;;;;;;28.30;13.82;;;;;;;;;;5043179;28;20433;-81
2022/10/29 13:49:15;;;;;;;23.20;14.13;;;;;;;;;;5037975;28;20433;-82
2022/10/29 13:51:53;;;;;;;21.98;14.50;;;;;;;;;;5045154;28;20448;-81
2022/10/29 13:54:22;;;;;;;22.58;13.98;;;;;;;;;;5044292;28;20433;-82
2022/10/29 13:56:52;;;;;;;25.60;15.95;;;;;;;;;;5041733;28;20435;-81
2022/10/29 13:59:23;;;;;;;25.77;14.88;;;;;;;;;;5041651;28;20428;-80
2022/10/29 14:01:54;;;;;;;31.10;16.03;;;;;;;;;;5045100;28;20442;-81
2022/10/29 14:04:23;;;;;;;24.08;15.00;;;;;;;;;;5041425;28;20425;-81
2022/10/29 14:06:50;;;;;;;26.02;14.80;;;;;;;;;;5040325;28;20411;-81
2022/10/29 14:09:22;;;;;;;23.00;15.13;;;;;;;;;;5044713;28;20421;-82
2022/10/29 14:11:53;;;;;;;22.30;15.45;;;;;;;;;;5043958;28;20436;-81
2022/10/29 14:14:24;;;;;;;27.15;16.23;;;;;;;;;;5037122;28;20421;-81
2022/10/29 14:16:51;;;;;;;26.83;14.52;;;;;;;;;;5042323;28;20466;-83
2022/10/29 14:19:19;;;;;;;23.65;15.05;;;;;;;;;;5041305;28;20436;-82
2022/10/29 14:21:46;;;;;;;24.27;14.63;;;;;;;;;;5042458;28;20824;-82
2022/10/29 14:24:15;;;;;;;28.63;17.48;;;;;;;;;;5043358;28;20421;-81
2022/10/29 14:26:42;;;;;;;26.70;16.90;;;;;;;;;;5041187;28;20445;-80